Time;durP1;ratioP1;P1;durP2;ratioP2;P2;SDS_P1;SDS_P2;PMS_P1;PMS_P2;Temp;Humidity;BMP_temperature;BMP_pressure;BME280_temperature;BME280_humidity;BME280_pressure;Samples;Min_cycle;Max_cycle;Signal;HPM_P1;HPM_P2
2023/04/23 00:01:47;;;;;;;16.17;8.68;;;;;;;10.58;100.00;93383.78;5010655;28;20049;-60
2023/04/23 00:04:17;;;;;;;15.32;8.00;;;;;;;10.66;100.00;93376.13;5010767;28;20046;-59
2023/04/23 00:06:46;;;;;;;12.20;6.33;;;;;;;10.63;100.00;93376.22;5008956;28;20379;-59
2023/04/23 00:09:15;;;;;;;7.88;5.30;;;;;;;10.67;100.00;93379.66;5010795;28;20041;-59
2023/04/23 00:11:42;;;;;;;10.10;5.85;;;;;;;10.68;100.00;93381.94;5008753;28;20092;-59
2023/04/23 00:14:10;;;;;;;9.45;6.03;;;;;;;10.75;100.00;93384.53;5010567;28;20046;-59
2023/04/23 00:16:38;;;;;;;13.45;7.53;;;;;;;10.78;100.00;93386.44;5010483;28;20414;-59
2023/04/23 00:19:05;;;;;;;11.40;7.10;;;;;;;10.78;100.00;93389.16;5010761;28;20046;-59
2023/04/23 00:21:32;;;;;;;10.32;6.30;;;;;;;10.81;100.00;93389.50;5010486;28;20042;-59
2023/04/23 00:23:59;;;;;;;13.75;7.72;;;;;;;10.76;100.00;93388.81;5009839;28;20566;-59
2023/04/23 00:26:25;;;;;;;19.90;10.27;;;;;;;10.76;100.00;93386.06;5010361;28;20045;-59
2023/04/23 00:28:52;;;;;;;17.73;10.23;;;;;;;10.71;100.00;93381.09;5009967;28;20038;-59
2023/04/23 00:31:21;;;;;;;20.20;10.37;;;;;;;10.69;100.00;93386.25;5010571;28;20053;-59
2023/04/23 00:33:48;;;;;;;16.25;9.10;;;;;;;10.74;100.00;93388.47;5009739;28;20042;-59
2023/04/23 00:36:14;;;;;;;13.48;8.45;;;;;;;10.46;100.00;93383.66;5010355;28;20056;-59
2023/04/23 00:38:41;;;;;;;14.38;7.93;;;;;;;9.98;100.00;93385.88;5009690;28;20054;-59
2023/04/23 00:41:08;;;;;;;13.10;8.15;;;;;;;9.60;100.00;93380.78;5009719;28;20091;-59
2023/04/23 00:43:35;;;;;;;11.67;6.70;;;;;;;10.02;100.00;93388.53;5009893;28;20107;-59
2023/04/23 00:46:02;;;;;;;10.80;7.28;;;;;;;10.09;100.00;93383.66;5010128;28;20111;-59
2023/04/23 00:48:29;;;;;;;11.13;7.30;;;;;;;10.32;100.00;93390.25;5009926;28;20441;-59
2023/04/23 00:51:02;;;;;;;11.70;7.53;;;;;;;10.27;100.00;93386.00;5009368;28;20540;-59
2023/04/23 00:53:28;;;;;;;12.20;7.35;;;;;;;10.31;100.00;93385.97;5001916;28;20053;-59
2023/04/23 00:55:56;;;;;;;10.70;7.83;;;;;;;10.08;100.00;93386.81;4990021;28;20048;-59
2023/04/23 00:58:23;;;;;;;11.50;7.47;;;;;;;10.17;100.00;93382.31;5005563;28;20058;-58
2023/04/23 01:00:51;;;;;;;10.45;7.80;;;;;;;9.99;100.00;93390.16;5009421;28;20471;-59
2023/04/23 01:03:20;;;;;;;15.02;9.20;;;;;;;10.05;100.00;93385.72;5009872;28;20506;-59
2023/04/23 01:05:50;;;;;;;9.35;5.93;;;;;;;9.99;100.00;93382.69;5009462;28;20054;-59
2023/04/23 01:08:17;;;;;;;10.07;6.57;;;;;;;10.08;100.00;93386.81;5009814;28;20471;-59
2023/04/23 01:10:44;;;;;;;11.13;7.10;;;;;;;10.12;100.00;93387.53;5009339;28;20030;-59
2023/04/23 01:13:12;;;;;;;9.32;6.22;;;;;;;10.22;100.00;93380.25;5009613;28;20120;-58
2023/04/23 01:15:39;;;;;;;9.82;6.60;;;;;;;10.24;100.00;93386.09;5008850;28;20103;-58
2023/04/23 01:18:08;;;;;;;9.30;6.50;;;;;;;10.34;100.00;93379.63;5009738;28;20242;-58
2023/04/23 01:20:36;;;;;;;9.87;6.27;;;;;;;10.26;100.00;93379.00;5009113;28;20115;-58
2023/04/23 01:23:03;;;;;;;9.60;6.18;;;;;;;10.37;100.00;93384.25;5009263;28;20045;-59
2023/04/23 01:25:30;;;;;;;10.10;6.88;;;;;;;9.99;100.00;93379.97;5009371;28;20034;-59
2023/04/23 01:27:57;;;;;;;10.20;6.38;;;;;;;10.16;100.00;93382.72;5007841;28;20053;-58
2023/04/23 01:30:25;;;;;;;103.90;58.55;;;;;;;10.29;100.00;93386.38;5009552;28;20042;-59
2023/04/23 01:32:55;;;;;;;23.33;13.43;;;;;;;10.32;100.00;93391.03;5009059;28;20073;-58
2023/04/23 01:35:23;;;;;;;10.77;6.97;;;;;;;10.28;100.00;93390.31;5007950;28;20083;-59
2023/04/23 01:37:52;;;;;;;8.55;5.72;;;;;;;10.34;100.00;93390.59;5008891;28;20052;-59
2023/04/23 01:40:19;;;;;;;8.35;5.20;;;;;;;10.35;100.00;93387.44;5009341;28;20049;-59
2023/04/23 01:42:47;;;;;;;9.15;5.18;;;;;;;10.38;100.00;93394.81;5008483;28;20472;-59
2023/04/23 01:45:16;;;;;;;9.33;5.13;;;;;;;10.40;100.00;93391.63;5009210;28;20099;-59
2023/04/23 01:47:43;;;;;;;8.05;5.05;;;;;;;10.28;100.00;93392.25;5008328;28;20042;-59
2023/04/23 01:50:10;;;;;;;8.60;5.30;;;;;;;10.34;100.00;93394.13;5009143;28;20150;-59
2023/04/23 01:52:37;;;;;;;8.50;5.32;;;;;;;10.37;100.00;93398.75;5007203;28;20101;-59
2023/04/23 01:55:04;;;;;;;12.80;8.13;;;;;;;10.40;100.00;93399.84;4991391;28;20446;-59
2023/04/23 01:57:31;;;;;;;9.63;6.00;;;;;;;10.42;100.00;93397.44;5000024;28;20037;-59
2023/04/23 02:00:07;;;;;;;11.00;4.82;;;;;;;10.27;100.00;93405.22;5007494;28;20066;-59
2023/04/23 02:02:34;;;;;;;7.28;4.85;;;;;;;10.28;100.00;93404.03;5008595;28;20045;-57
2023/04/23 02:05:04;;;;;;;7.63;4.70;;;;;;;10.30;100.00;93409.88;5008714;28;20056;-59
2023/04/23 02:07:32;;;;;;;6.53;4.35;;;;;;;10.25;100.00;93404.88;5008694;28;20090;-58
2023/04/23 02:10:00;;;;;;;8.43;4.70;;;;;;;10.30;100.00;93406.34;5007529;28;21395;-58
2023/04/23 02:12:27;;;;;;;6.63;4.72;;;;;;;10.37;100.00;93406.22;5008613;28;20048;-58
2023/04/23 02:14:54;;;;;;;7.47;5.00;;;;;;;10.34;100.00;93404.31;5008217;28;20050;-58
2023/04/23 02:17:21;;;;;;;7.90;4.65;;;;;;;10.28;100.00;93412.25;5008559;28;20046;-58
2023/04/23 02:19:49;;;;;;;7.22;4.72;;;;;;;10.29;100.00;93415.75;5008199;28;20335;-58
2023/04/23 02:22:16;;;;;;;7.97;4.83;;;;;;;10.34;100.00;93418.00;5008647;28;20242;-58
2023/04/23 02:24:43;;;;;;;8.38;4.40;;;;;;;10.32;100.00;93412.19;5006513;28;20046;-58
2023/04/23 02:27:10;;;;;;;7.70;4.40;;;;;;;10.31;100.00;93413.41;5008375;28;20045;-59
2023/04/23 02:29:36;;;;;;;7.85;4.90;;;;;;;10.36;100.00;93412.88;5008038;28;20095;-58
2023/04/23 02:32:03;;;;;;;8.23;4.90;;;;;;;10.24;100.00;93406.09;5007160;28;20104;-58
2023/04/23 02:34:30;;;;;;;8.20;5.13;;;;;;;10.24;100.00;93405.28;5008349;28;20233;-59
2023/04/23 02:36:56;;;;;;;7.07;5.00;;;;;;;10.25;100.00;93402.13;5007714;28;20061;-58
2023/04/23 02:39:23;;;;;;;8.30;4.85;;;;;;;10.00;100.00;93397.97;5008584;28;20054;-58
2023/04/23 02:41:50;;;;;;;7.78;4.97;;;;;;;9.90;100.00;93398.19;5004215;28;20050;-58
2023/04/23 02:44:16;;;;;;;7.60;5.13;;;;;;;9.93;100.00;93391.84;4991875;28;20042;-58
2023/04/23 02:46:43;;;;;;;8.30;5.37;;;;;;;9.91;100.00;93389.53;5001873;28;20046;-59
2023/04/23 02:49:10;;;;;;;7.45;4.97;;;;;;;9.90;100.00;93398.97;5008439;28;20041;-59
2023/04/23 02:51:37;;;;;;;7.75;5.43;;;;;;;9.93;100.00;93400.84;5007745;28;20057;-58
2023/04/23 02:54:04;;;;;;;9.57;5.00;;;;;;;9.90;100.00;93406.41;5008141;28;20052;-58
2023/04/23 02:56:31;;;;;;;7.38;4.75;;;;;;;9.92;100.00;93398.53;5008240;28;20045;-59
2023/04/23 02:58:58;;;;;;;8.50;4.57;;;;;;;9.92;100.00;93401.25;5007226;28;21322;-59
2023/04/23 03:01:25;;;;;;;7.40;4.80;;;;;;;9.92;100.00;93387.56;5008057;28;20048;-58
2023/04/23 03:03:53;;;;;;;10.07;4.68;;;;;;;9.83;100.00;93390.88;5007671;28;20041;-58
2023/04/23 03:06:20;;;;;;;7.50;4.70;;;;;;;9.70;100.00;93392.72;5008266;28;20038;-59
2023/04/23 03:08:46;;;;;;;7.47;5.03;;;;;;;9.76;100.00;93394.56;5007781;28;20457;-58
2023/04/23 03:11:13;;;;;;;7.37;5.10;;;;;;;9.83;100.00;93393.63;5009223;28;20253;-58
2023/04/23 03:13:40;;;;;;;7.90;5.07;;;;;;;9.83;100.00;93399.09;5011538;28;20034;-58
2023/04/23 03:16:07;;;;;;;7.05;4.70;;;;;;;9.87;100.00;93399.81;5011886;28;20038;-59
2023/04/23 03:18:34;;;;;;;8.82;5.72;;;;;;;9.68;100.00;93395.91;5011678;28;20495;-58
2023/04/23 03:21:00;;;;;;;8.75;5.75;;;;;;;9.66;100.00;93403.75;5011912;28;20083;-58
2023/04/23 03:23:27;;;;;;;9.03;5.43;;;;;;;9.69;100.00;93397.44;5011933;28;20050;-58
2023/04/23 03:25:54;;;;;;;9.40;5.75;;;;;;;9.68;100.00;93387.69;5011267;28;20088;-58
2023/04/23 03:28:21;;;;;;;10.80;5.40;;;;;;;9.63;100.00;93388.16;5011532;28;20410;-59
2023/04/23 03:30:47;;;;;;;9.20;5.50;;;;;;;9.63;100.00;93381.91;5011292;28;20084;-59
2023/04/23 03:33:14;;;;;;;7.55;5.07;;;;;;;9.59;100.00;93393.69;5011752;28;20405;-59
2023/04/23 03:35:41;;;;;;;8.53;5.30;;;;;;;9.56;100.00;93397.31;5009999;28;20050;-59
2023/04/23 03:38:07;;;;;;;7.20;4.47;;;;;;;9.56;100.00;93402.00;5010100;28;20056;-58
2023/04/23 03:40:35;;;;;;;7.60;4.63;;;;;;;9.39;100.00;93401.16;5010978;28;20060;-59
2023/04/23 03:43:01;;;;;;;7.40;4.60;;;;;;;9.42;100.00;93403.06;4994305;28;20096;-58
2023/04/23 03:45:29;;;;;;;6.78;4.57;;;;;;;9.38;100.00;93399.63;4994826;28;20038;-58
2023/04/23 03:47:56;;;;;;;6.60;4.30;;;;;;;9.28;100.00;93392.38;5011056;28;20079;-59
2023/04/23 03:50:23;;;;;;;5.88;3.83;;;;;;;9.24;100.00;93394.41;5011636;28;20049;-58
2023/04/23 03:52:51;;;;;;;6.43;4.18;;;;;;;9.19;100.00;93390.97;5011210;28;20044;-58
2023/04/23 03:55:19;;;;;;;6.32;3.80;;;;;;;9.20;100.00;93394.47;5011402;28;20053;-58
2023/04/23 03:57:46;;;;;;;5.97;3.80;;;;;;;9.25;100.00;93401.41;5010787;28;20037;-59
2023/04/23 04:00:13;;;;;;;7.63;3.73;;;;;;;9.24;100.00;93400.66;5011016;28;20050;-59
2023/04/23 04:02:40;;;;;;;6.25;3.20;;;;;;;9.17;100.00;93390.59;5010697;28;20038;-58
2023/04/23 04:05:08;;;;;;;5.13;3.30;;;;;;;9.18;100.00;93394.13;5011262;28;20515;-58
2023/04/23 04:07:35;;;;;;;4.95;2.45;;;;;;;9.23;100.00;93401.06;5010233;28;20042;-59
2023/04/23 04:10:04;;;;;;;5.47;3.15;;;;;;;9.23;100.00;93396.34;5010993;28;20155;-59
2023/04/23 04:12:31;;;;;;;4.60;2.80;;;;;;;9.20;100.00;93394.47;5010899;28;20042;-59
2023/04/23 04:14:58;;;;;;;4.30;2.50;;;;;;;9.25;100.00;93393.19;5010033;28;20674;-58
2023/04/23 04:17:25;;;;;;;4.18;2.80;;;;;;;9.22;100.00;93394.81;5010751;28;20127;-59
2023/04/23 04:19:51;;;;;;;4.10;2.78;;;;;;;9.10;100.00;93409.13;5010166;28;20042;-59
2023/04/23 04:22:18;;;;;;;5.03;3.25;;;;;;;9.03;100.00;93406.50;5008763;28;20038;-59
2023/04/23 04:24:46;;;;;;;4.60;2.97;;;;;;;9.05;100.00;93404.13;5010490;28;20491;-59
2023/04/23 04:27:13;;;;;;;4.03;2.67;;;;;;;9.06;100.00;93405.69;5010539;28;20050;-59
2023/04/23 04:29:40;;;;;;;4.28;3.15;;;;;;;9.14;100.00;93396.16;5009848;28;20064;-58
2023/04/23 04:32:08;;;;;;;4.72;3.10;;;;;;;9.05;100.00;93404.13;5010581;28;20458;-58
2023/04/23 04:34:37;;;;;;;5.20;3.28;;;;;;;9.09;100.00;93396.63;5009934;28;20046;-58
2023/04/23 04:37:04;;;;;;;5.13;2.90;;;;;;;9.01;100.00;93398.72;5010451;28;20052;-58
2023/04/23 04:39:30;;;;;;;4.63;2.90;;;;;;;8.84;100.00;93392.38;5010249;28;20492;-58
2023/04/23 04:41:58;;;;;;;4.55;3.03;;;;;;;8.74;100.00;93396.06;5001341;28;20057;-58
2023/04/23 04:44:25;;;;;;;5.03;3.20;;;;;;;8.72;100.00;93395.69;4990602;28;20061;-58
2023/04/23 04:46:52;;;;;;;7.22;3.67;;;;;;;8.80;100.00;93392.41;5007259;28;20406;-59
2023/04/23 04:49:20;;;;;;;6.13;3.73;;;;;;;8.97;100.00;93398.00;5010276;28;20046;-58
2023/04/23 04:51:47;;;;;;;6.20;3.60;;;;;;;9.01;100.00;93398.72;5008445;28;20494;-58
2023/04/23 04:54:14;;;;;;;5.43;3.97;;;;;;;9.11;100.00;93400.47;5010054;28;20054;-58
2023/04/23 04:56:41;;;;;;;6.72;4.13;;;;;;;9.20;100.00;93397.97;5009536;28;20044;-58
2023/04/23 04:59:07;;;;;;;7.45;4.60;;;;;;;9.25;100.00;93395.94;5009946;28;20061;-58
2023/04/23 05:01:35;;;;;;;7.23;4.43;;;;;;;9.35;100.00;93397.69;5009449;28;20071;-59
2023/04/23 05:04:02;;;;;;;7.35;4.72;;;;;;;9.38;100.00;93403.13;5009979;28;20044;-59
2023/04/23 05:06:31;;;;;;;7.10;4.53;;;;;;;9.39;100.00;93401.16;5009864;28;20050;-58
2023/04/23 05:08:58;;;;;;;7.07;4.38;;;;;;;9.35;100.00;93401.22;5009291;28;20034;-58
2023/04/23 05:11:24;;;;;;;7.38;3.97;;;;;;;9.41;100.00;93401.50;5009911;28;20045;-59
2023/04/23 05:13:51;;;;;;;6.17;4.37;;;;;;;9.50;100.00;93392.75;5009190;28;20068;-59
2023/04/23 05:16:18;;;;;;;6.18;4.47;;;;;;;9.50;100.00;93398.22;5009700;28;20054;-59
2023/04/23 05:18:45;;;;;;;6.70;4.55;;;;;;;9.28;100.00;93393.16;5009292;28;20103;-58
2023/04/23 05:21:14;;;;;;;7.18;4.15;;;;;;;9.18;100.00;93394.88;5009299;28;20046;-58
2023/04/23 05:23:40;;;;;;;7.72;5.03;;;;;;;9.01;100.00;93404.19;5009269;28;20052;-59
2023/04/23 05:26:07;;;;;;;8.63;4.80;;;;;;;8.89;100.00;93397.34;5009408;28;20054;-59
2023/04/23 05:28:34;;;;;;;9.35;5.43;;;;;;;8.99;100.00;93401.88;5009234;28;20072;-59
2023/04/23 05:31:00;;;;;;;10.35;6.20;;;;;;;9.16;100.00;93404.72;5009522;28;20049;-59
2023/04/23 05:33:27;;;;;;;7.88;4.72;;;;;;;9.36;100.00;93399.25;5008819;28;20498;-59
2023/04/23 05:36:01;;;;;;;6.60;4.75;;;;;;;9.57;100.00;93395.31;5008688;28;20916;-59
2023/04/23 05:38:28;;;;;;;6.90;4.80;;;;;;;9.68;100.00;93389.63;5009593;28;20041;-59
2023/04/23 05:40:55;;;;;;;6.82;4.30;;;;;;;9.42;100.00;93386.63;5008872;28;20056;-59
2023/04/23 05:43:22;;;;;;;5.80;3.70;;;;;;;9.06;100.00;93387.28;5009232;28;20062;-59
2023/04/23 05:45:48;;;;;;;7.18;4.25;;;;;;;9.06;100.00;93386.53;5008696;28;20061;-59
2023/04/23 05:48:15;;;;;;;6.65;4.03;;;;;;;9.47;100.00;93391.59;5009409;28;20053;-58
2023/04/23 05:50:42;;;;;;;5.80;3.53;;;;;;;9.68;100.00;93392.34;5008644;28;20042;-59
2023/04/23 05:53:08;;;;;;;5.70;3.70;;;;;;;9.86;100.00;93392.00;5008999;28;20200;-58
2023/04/23 05:55:35;;;;;;;6.22;3.50;;;;;;;9.96;100.00;93380.03;5008846;28;20486;-59
2023/04/23 05:58:02;;;;;;;5.90;4.00;;;;;;;9.90;100.00;93388.00;5009015;28;20119;-59
2023/04/23 06:00:29;;;;;;;6.50;3.33;;;;;;;9.94;100.00;93383.22;5009216;28;20104;-59
2023/04/23 06:02:56;;;;;;;5.63;3.30;;;;;;;9.92;100.00;93373.84;5008798;28;20506;-59
2023/04/23 06:05:22;;;;;;;5.05;3.00;;;;;;;10.27;100.00;93379.75;5008783;28;20060;-58
2023/04/23 06:07:49;;;;;;;5.20;3.30;;;;;;;10.51;100.00;93380.41;5008371;28;20464;-58
2023/04/23 06:10:16;;;;;;;5.50;2.40;;;;;;;10.39;100.00;93384.59;5008789;28;20088;-58
2023/04/23 06:12:43;;;;;;;3.65;2.30;;;;;;;10.57;100.00;93373.22;4990631;28;20096;-58
2023/04/23 06:15:10;;;;;;;3.87;1.97;;;;;;;10.33;100.00;93381.59;4992602;28;20052;-60
2023/04/23 06:17:37;;;;;;;3.30;2.08;;;;;;;10.33;100.00;93386.31;5008367;28;20422;-60
2023/04/23 06:20:06;;;;;;;3.20;2.22;;;;;;;10.34;100.00;93380.41;5008719;28;20048;-60
2023/04/23 06:22:32;;;;;;;3.58;2.28;;;;;;;10.31;100.00;93383.22;5008704;28;20394;-60
2023/04/23 06:24:59;;;;;;;3.50;2.10;;;;;;;10.15;100.00;93381.19;5007867;28;20294;-60
2023/04/23 06:27:26;;;;;;;4.30;2.07;;;;;;;10.14;100.00;93388.66;5008560;28;20399;-58
2023/04/23 06:29:52;;;;;;;3.08;1.90;;;;;;;10.05;100.00;93377.50;5008196;28;20049;-58
2023/04/23 06:32:20;;;;;;;3.00;1.80;;;;;;;9.95;100.00;93379.25;5008577;28;20045;-60
2023/04/23 06:34:46;;;;;;;3.65;2.30;;;;;;;10.24;100.00;93377.88;5008179;28;20050;-60
2023/04/23 06:37:35;;;;;;;4.43;2.38;;;;;;;11.25;100.00;93365.22;5008803;28;20042;-58
2023/04/23 06:40:02;;;;;;;3.63;2.10;;;;;;;11.48;100.00;93367.72;5007742;28;20731;-58
2023/04/23 06:42:29;;;;;;;5.40;3.03;;;;;;;11.27;100.00;93360.84;5022994;28;20052;-58
2023/04/23 06:44:58;;;;;;;4.30;2.72;;;;;;;10.63;100.00;93360.53;5007708;28;20517;-58
2023/04/23 06:47:25;;;;;;;5.35;2.90;;;;;;;10.89;100.00;93355.19;5008245;28;20307;-58
2023/04/23 06:49:51;;;;;;;4.10;2.67;;;;;;;10.79;100.00;93344.03;5008017;28;20529;-58
2023/04/23 06:52:18;;;;;;;3.83;2.33;;;;;;;10.96;100.00;93344.78;5008386;28;20111;-58
2023/04/23 06:54:45;;;;;;;4.13;2.20;;;;;;;11.08;100.00;93343.28;5007929;28;20048;-58
2023/04/23 06:57:11;;;;;;;2.67;1.40;;;;;;;11.33;100.00;93347.38;5008639;28;20445;-61
2023/04/23 06:59:38;;;;;;;2.33;1.38;;;;;;;12.85;100.00;93336.13;5006455;28;20046;-58
2023/04/23 07:02:05;;;;;;;3.17;1.40;;;;;;;13.70;100.00;93343.44;5008274;28;20096;-58
2023/04/23 07:04:32;;;;;;;3.00;1.50;;;;;;;15.22;100.00;93338.34;5007913;28;20431;-58
2023/04/23 07:06:59;;;;;;;2.65;1.40;;;;;;;15.08;100.00;93340.47;5007314;28;20583;-58
2023/04/23 07:09:26;;;;;;;2.70;1.30;;;;;;;14.42;100.00;93339.97;4990418;28;20052;-58
2023/04/23 07:11:53;;;;;;;3.08;1.30;;;;;;;15.54;100.00;93336.97;4997420;28;20056;-58
2023/04/23 07:14:20;;;;;;;2.78;1.40;;;;;;;14.29;100.00;93340.09;4990192;28;20050;-58
2023/04/23 07:16:46;;;;;;;3.13;1.60;;;;;;;13.46;100.00;93340.38;5007613;28;20048;-58
2023/04/23 07:19:13;;;;;;;2.80;1.60;;;;;;;13.38;100.00;93336.31;5008026;28;20099;-58
2023/04/23 07:21:40;;;;;;;2.72;1.40;;;;;;;12.96;100.00;93337.31;5007499;28;20698;-58
2023/04/23 07:24:06;;;;;;;2.80;1.65;;;;;;;12.43;100.00;93336.31;5007902;28;20042;-58
2023/04/23 07:26:34;;;;;;;3.00;2.13;;;;;;;12.20;100.00;93329.94;5007394;28;20056;-58
2023/04/23 07:29:03;;;;;;;2.60;1.73;;;;;;;12.14;100.00;93320.69;5007693;28;20049;-58
2023/04/23 07:31:30;;;;;;;2.60;1.48;;;;;;;11.86;100.00;93320.31;5007689;28;20050;-60
2023/04/23 07:33:57;;;;;;;2.75;1.60;;;;;;;12.06;100.00;93322.13;5006006;28;20392;-58
2023/04/23 07:36:23;;;;;;;2.80;1.70;;;;;;;11.77;100.00;93328.44;5007778;28;20291;-60
2023/04/23 07:38:50;;;;;;;2.63;1.50;;;;;;;11.79;100.00;93329.56;5007520;28;20557;-60
2023/04/23 07:41:17;;;;;;;3.50;1.90;;;;;;;11.51;100.00;93333.09;5007275;28;20058;-58
2023/04/23 07:43:44;;;;;;;3.17;1.95;;;;;;;11.58;100.00;93327.41;5007228;28;20119;-58
2023/04/23 07:46:11;;;;;;;3.15;1.70;;;;;;;11.32;100.00;93324.59;5007631;28;20050;-58
2023/04/23 07:48:38;;;;;;;3.55;1.73;;;;;;;11.53;100.00;93315.00;5007346;28;20438;-60
2023/04/23 07:51:05;;;;;;;3.67;1.60;;;;;;;11.44;100.00;93325.09;5007929;28;20553;-61
2023/04/23 07:53:32;;;;;;;3.43;1.70;;;;;;;11.47;100.00;93318.69;5007800;28;20048;-58
2023/04/23 07:55:59;;;;;;;2.88;1.67;;;;;;;11.52;100.00;93321.69;5006732;28;21065;-58
2023/04/23 07:58:26;;;;;;;3.17;1.90;;;;;;;11.23;100.00;93327.22;5010240;28;20046;-58
2023/04/23 08:00:53;;;;;;;2.60;1.63;;;;;;;11.18;100.00;93333.22;5010695;28;20049;-58
2023/04/23 08:03:20;;;;;;;3.15;1.65;;;;;;;11.49;100.00;93328.06;5011203;28;20107;-61
2023/04/23 08:05:48;;;;;;;3.20;1.57;;;;;;;11.74;100.00;93323.81;5010749;28;20307;-60
2023/04/23 08:08:14;;;;;;;2.80;1.60;;;;;;;11.60;100.00;93327.75;5010898;28;20501;-58
2023/04/23 08:10:41;;;;;;;3.45;2.08;;;;;;;11.86;100.00;93316.81;5010515;28;20045;-58
2023/04/23 08:13:08;;;;;;;3.75;1.95;;;;;;;11.64;100.00;93311.16;5010744;28;20046;-60
2023/04/23 08:15:35;;;;;;;6.20;3.53;;;;;;;12.14;100.00;93306.94;5010459;28;20046;-58
2023/04/23 08:18:03;;;;;;;7.50;3.97;;;;;;;12.38;100.00;93305.38;5010724;28;20358;-58
2023/04/23 08:20:31;;;;;;;5.90;3.13;;;;;;;12.47;100.00;93301.19;5010826;28;20050;-58
2023/04/23 08:22:58;;;;;;;4.13;2.17;;;;;;;13.12;100.00;93295.06;5010486;28;20199;-58
2023/04/23 08:25:25;;;;;;;4.38;2.58;;;;;;;14.50;100.00;93306.09;5010824;28;20052;-58
2023/04/23 08:27:51;;;;;;;4.72;2.22;;;;;;;14.86;100.00;93296.38;5010211;28;20054;-58
2023/04/23 08:30:18;;;;;;;4.03;1.93;;;;;;;14.54;100.00;93303.97;5010860;28;20288;-58
2023/04/23 08:32:49;;;;;;;2.95;1.92;;;;;;;13.14;100.00;93313.91;5010102;28;20050;-58
2023/04/23 08:35:16;;;;;;;3.20;1.88;;;;;;;13.67;100.00;93304.97;5010670;28;20049;-58
2023/04/23 08:37:43;;;;;;;2.80;1.60;;;;;;;14.51;100.00;93312.41;5002033;28;20042;-58
2023/04/23 08:40:10;;;;;;;4.60;2.60;;;;;;;14.10;100.00;93315.16;4999965;28;20091;-59
2023/04/23 08:42:42;;;;;;;4.30;1.90;;;;;;;14.10;100.00;93308.88;5009660;28;20443;-58
2023/04/23 08:45:10;;;;;;;3.58;1.70;;;;;;;13.70;100.00;93309.56;5010162;28;20088;-60
2023/04/23 08:47:41;;;;;;;2.53;1.50;;;;;;;13.75;100.00;93293.22;5009620;28;20104;-60
2023/04/23 08:50:17;;;;;;;4.07;2.40;;;;;;;14.50;100.00;93306.09;5010468;28;20042;-58
2023/04/23 08:52:52;;;;;;;3.20;2.00;;;;;;;14.68;98.85;93305.41;5009770;28;20202;-58
2023/04/23 08:55:20;;;;;;;3.67;2.13;;;;;;;16.95;83.69;93302.38;5010275;28;20042;-59
2023/04/23 08:57:48;;;;;;;3.20;1.80;;;;;;;17.90;76.70;93302.69;5008330;28;20041;-59
2023/04/23 09:00:20;;;;;;;3.53;1.80;;;;;;;18.99;72.09;93289.22;5009858;28;20072;-59
2023/04/23 09:02:47;;;;;;;2.50;1.30;;;;;;;19.65;64.99;93274.56;5009508;28;20050;-59
2023/04/23 09:05:15;;;;;;;2.00;1.20;;;;;;;17.21;73.88;93288.03;5009848;28;20042;-59
2023/04/23 09:07:42;;;;;;;3.63;2.17;;;;;;;17.77;74.95;93286.31;5009060;28;20056;-59
2023/04/23 09:10:11;;;;;;;3.40;2.15;;;;;;;18.63;67.56;93282.88;5009882;28;20418;-59
2023/04/23 09:12:43;;;;;;;2.95;1.30;;;;;;;18.69;67.29;93287.28;4996357;28;20107;-59
2023/04/23 09:15:12;;;;;;;3.10;1.80;;;;;;;19.24;66.86;93276.66;5008476;28;20065;-59
2023/04/23 09:17:42;;;;;;;3.60;2.10;;;;;;;18.50;68.49;93275.63;4996481;28;20037;-59
2023/04/23 09:20:10;;;;;;;3.20;1.70;;;;;;;18.72;68.57;93271.66;5009750;28;20054;-59
2023/04/23 09:22:38;;;;;;;2.30;1.33;;;;;;;17.67;70.51;93271.00;5009124;28;20052;-59
2023/04/23 09:25:10;;;;;;;2.55;1.55;;;;;;;16.87;79.16;93259.63;5009647;28;20046;-59
2023/04/23 09:27:37;;;;;;;2.58;1.35;;;;;;;16.74;78.23;93256.28;4995355;28;20338;-58
2023/04/23 09:30:09;;;;;;;2.70;1.65;;;;;;;16.27;84.05;93257.78;5009499;28;20425;-58
2023/04/23 09:32:41;;;;;;;2.30;1.47;;;;;;;16.90;81.40;93255.94;5007996;28;20487;-58
2023/04/23 09:35:10;;;;;;;2.72;1.70;;;;;;;16.50;79.74;93251.53;5009740;28;20038;-59
2023/04/23 09:37:41;;;;;;;2.60;1.60;;;;;;;16.02;84.55;93251.44;4995895;28;20046;-58
2023/04/23 09:40:08;;;;;;;2.85;1.80;;;;;;;14.91;94.22;93253.56;4993964;28;20052;-58
2023/04/23 09:42:36;;;;;;;2.33;1.52;;;;;;;16.33;87.17;93242.81;5008505;28;20049;-58
2023/04/23 09:45:05;;;;;;;3.67;1.70;;;;;;;16.87;81.39;93243.00;5009455;28;20044;-59
2023/04/23 09:47:33;;;;;;;2.40;1.40;;;;;;;17.82;72.93;93236.94;5009303;28;20046;-59
2023/04/23 09:50:00;;;;;;;2.47;1.63;;;;;;;16.62;78.45;93227.59;5007015;28;20273;-58
2023/04/23 09:52:30;;;;;;;2.95;1.60;;;;;;;16.43;83.20;93237.25;5009488;28;20084;-58
2023/04/23 09:55:00;;;;;;;2.40;1.33;;;;;;;18.33;76.27;93211.50;5008620;28;20049;-60
2023/04/23 09:57:27;;;;;;;3.10;1.30;;;;;;;19.99;64.69;93207.34;5009183;28;20489;-59
2023/04/23 09:59:56;;;;;;;3.53;1.52;;;;;;;18.05;70.95;93207.53;5008795;28;20046;-59
2023/04/23 10:02:45;;;;;;;2.47;1.60;;;;;;;18.50;67.17;93210.97;5008517;28;20049;-59
2023/04/23 10:05:16;;;;;;;2.83;1.60;;;;;;;17.70;71.38;93206.19;5008817;28;20050;-59
2023/04/23 10:07:55;;;;;;;2.53;1.58;;;;;;;18.66;70.79;93190.97;5008696;28;20045;-60
2023/04/23 10:10:22;;;;;;;2.50;1.50;;;;;;;19.32;64.50;93197.84;5008934;28;20095;-59
2023/04/23 10:12:52;;;;;;;3.47;1.30;;;;;;;19.18;66.40;93192.38;5008489;28;20513;-59
2023/04/23 10:15:24;;;;;;;3.30;1.73;;;;;;;18.96;64.07;93190.88;5008971;28;20099;-59
2023/04/23 10:17:52;;;;;;;2.50;1.58;;;;;;;18.20;67.52;93190.84;5008668;28;20041;-59
2023/04/23 10:20:21;;;;;;;3.35;1.50;;;;;;;17.99;70.92;93193.59;5008460;28;20427;-59
2023/04/23 10:22:48;;;;;;;3.47;1.70;;;;;;;18.81;65.98;93188.16;5008588;28;20052;-58
2023/04/23 10:25:17;;;;;;;5.97;1.92;;;;;;;19.93;61.81;93188.53;5008692;28;20080;-59
2023/04/23 10:27:47;;;;;;;4.50;1.80;;;;;;;17.92;71.78;93196.75;5008260;28;20048;-58
2023/04/23 10:30:21;;;;;;;3.38;1.55;;;;;;;17.71;71.60;93190.34;5008263;28;20049;-58
2023/04/23 10:32:49;;;;;;;3.67;1.80;;;;;;;17.98;70.75;93185.72;5007983;28;20431;-59
2023/04/23 10:35:16;;;;;;;3.57;1.80;;;;;;;17.60;74.47;93188.13;5008263;28;20045;-58
2023/04/23 10:37:45;;;;;;;3.10;1.90;;;;;;;19.54;68.49;93177.81;5007874;28;20061;-58
2023/04/23 10:40:13;;;;;;;3.90;1.92;;;;;;;20.46;61.44;93178.00;5008266;28;20056;-59
2023/04/23 10:42:43;;;;;;;3.58;1.60;;;;;;;21.03;59.35;93169.94;5007624;28;20038;-59
2023/04/23 10:45:13;;;;;;;3.65;1.70;;;;;;;19.49;62.34;93167.38;5008372;28;20037;-58
2023/04/23 10:47:52;;;;;;;3.37;1.70;;;;;;;20.34;60.89;93157.69;5007980;28;20041;-59
2023/04/23 10:50:29;;;;;;;4.00;1.70;;;;;;;19.97;60.40;93149.34;5008259;28;20046;-59
2023/04/23 10:52:56;;;;;;;4.25;2.00;;;;;;;19.61;62.49;93151.56;5007809;28;20050;-59
2023/04/23 10:55:28;;;;;;;3.65;2.13;;;;;;;19.11;63.66;93162.97;5008260;28;20095;-58
2023/04/23 10:58:05;;;;;;;3.13;1.90;;;;;;;18.22;66.28;93157.81;5007723;28;20042;-59
2023/04/23 11:00:47;;;;;;;4.23;2.13;;;;;;;17.74;68.53;93156.06;4996832;28;20383;-58
2023/04/23 11:03:38;;;;;;;4.95;2.30;;;;;;;16.86;74.74;93160.31;5005618;28;20115;-59
2023/04/23 11:06:31;;;;;;;4.53;2.20;;;;;;;17.43;73.08;93157.34;5007178;28;20091;-59
2023/04/23 11:08:57;;;;;;;3.45;2.08;;;;;;;17.40;70.56;93155.50;4995561;28;20042;-59
2023/04/23 11:11:39;;;;;;;3.80;2.03;;;;;;;16.65;75.22;93151.84;5008164;28;20042;-58
2023/04/23 11:14:13;;;;;;;3.80;2.23;;;;;;;16.35;75.56;93140.66;5007274;28;20784;-59
2023/04/23 11:16:40;;;;;;;3.92;1.95;;;;;;;16.53;78.40;93142.53;5007638;28;20042;-58
2023/04/23 11:19:14;;;;;;;5.05;2.35;;;;;;;16.49;80.16;93136.44;5008040;28;20080;-58
2023/04/23 11:22:02;;;;;;;4.13;2.22;;;;;;;16.13;83.05;93132.66;5007620;28;20037;-59
2023/04/23 11:24:28;;;;;;;4.45;2.42;;;;;;;16.69;81.65;93138.59;5008313;28;20513;-58
2023/04/23 11:26:55;;;;;;;5.70;2.43;;;;;;;17.01;78.25;93136.19;5007367;28;20060;-58
2023/04/23 11:29:24;;;;;;;4.32;2.40;;;;;;;17.20;77.91;93130.47;5007551;28;20340;-59
2023/04/23 11:31:52;;;;;;;5.13;2.63;;;;;;;17.40;76.61;93127.00;5007526;28;20533;-58
2023/04/23 11:34:29;;;;;;;4.80;2.70;;;;;;;17.39;75.08;93129.03;5011561;28;20049;-59